To NAV CANADA Home Page Login to a new session Search on AWWS site Feedback and Comments Disclaimer Vers la page française équivalente Tips FAQ What's new on the site To the Forecasts and Observations / NOTAM section To "File a Flight Plan" website Publications and other links Update of the User's profile FIC Telephone Numbers My Weather Data Folder Route Weather Data Regional Weather Data Local Weather Data To the Forecasts and Observations / NOTAM section
Request Generated 01/17/2017 at 04:53:48 UTC . Weather information available at that time is displayed.

METAR/TAF

HALIFAX/STANFIELD INTL/NS    (show WxCam)

METAR CYHZ 170400Z 25017KT 15SM OVC035 00/M03 A2999 RMK SC8 SLP165=
METAR CYHZ 170300Z 24019G26KT 15SM BKN040 OVC075 M00/M03 A3001 RMK
SC6AC2 SLP173=
METAR CYHZ 170200Z 24019KT 15SM OVC078 M00/M04 A3004 RMK AC8 SLP183=

TAF CYHZ 170238Z 1703/1724 24015G25KT P6SM BKN080 TEMPO 1703/1705 4SM
-SHSN OVC040 PROB30 1703/1705 2SM -SHSN OVC020
FM170500 29012KT P6SM OVC040 TEMPO 1705/1709 P6SM -SN OVC015
FM170900 31010KT P6SM BKN020
FM171500 34010G20KT P6SM SCT025
BECMG 1720/1722 35008KT
RMK NXT FCST BY 170600Z=
Your time UTC time
Weather data provided by Environment Canada and NAV CANADA